Andersonville, Virginia
Current Conditions -  °F | °C
As of 1:55 PM on Sunday 23 Nov 2014 (Local Time) from KFVX Reporting Station
Scattered Clouds Scattered Clouds  
Wind Chill: 14°   Ceiling: Unl
Heat Index: 14°   Visibility: 10mi
Dew Point: -1°   Wind: 0mph
Humidity: 35%   Direction: NA
Pressure: 30.1"   Gusts: NA
Location:  37.47°N, 78.57°W
Report Text: KFVX 231855Z AUTO 00000KT 10SM SCT042 14/M01 A3010 RMK AO2 T01421010
Loading
Personal Weather Stations






























Interactive Weather Map New forecast layout! Learn more

10-Day Weather Forecast

Advertisements
Track Severe Weather on mobile